createdAt,value
2019-03-21T00:04:48.753Z,9.90
2019-03-21T00:10:12.656Z,9.92
2019-03-21T00:15:31.220Z,9.90
2019-03-21T00:20:36.006Z,9.82
2019-03-21T00:25:40.762Z,9.92
2019-03-21T00:30:45.536Z,9.88
2019-03-21T00:35:50.292Z,9.95
2019-03-21T00:40:55.076Z,9.92
2019-03-21T00:45:59.943Z,9.85
2019-03-21T00:51:04.721Z,9.90
2019-03-21T00:56:09.491Z,9.92
2019-03-21T01:01:14.248Z,9.77
2019-03-21T01:06:19.042Z,9.80
2019-03-21T01:11:23.806Z,9.82
2019-03-21T01:16:28.558Z,9.88
2019-03-21T01:21:33.325Z,9.89
2019-03-21T01:26:38.094Z,9.91
2019-03-21T01:31:42.851Z,9.97
2019-03-21T01:36:47.749Z,10.01
2019-03-21T01:41:52.529Z,9.90
2019-03-21T01:46:57.421Z,9.91
2019-03-21T01:52:02.222Z,9.72
2019-03-21T01:57:06.986Z,9.90
2019-03-21T02:02:11.864Z,9.89
2019-03-21T02:07:16.636Z,9.95
2019-03-21T02:12:21.404Z,9.82
2019-03-21T02:17:26.504Z,9.76
2019-03-21T02:22:31.266Z,9.72
2019-03-21T02:27:36.035Z,9.67
2019-03-21T02:32:41.313Z,9.85
2019-03-21T02:37:46.262Z,9.81
2019-03-21T02:42:51.278Z,9.69
2019-03-21T02:47:56.061Z,9.69
2019-03-21T02:53:01.018Z,9.70
2019-03-21T02:58:05.884Z,9.73
2019-03-21T03:03:11.038Z,9.65
2019-03-21T03:08:15.905Z,9.69
2019-03-21T03:13:20.674Z,9.77
2019-03-21T03:18:25.459Z,9.67
2019-03-21T03:23:30.472Z,9.74
2019-03-21T03:28:35.830Z,9.78
2019-03-21T03:33:40.621Z,9.76
2019-03-21T03:38:45.380Z,9.73
2019-03-21T03:43:50.140Z,9.70
2019-03-21T03:48:55.002Z,9.73
2019-03-21T03:53:59.770Z,9.78
2019-03-21T03:59:04.785Z,9.76
2019-03-21T04:04:09.640Z,9.80
2019-03-21T04:09:14.397Z,9.79
2019-03-21T04:14:19.268Z,9.83
2019-03-21T04:19:24.045Z,9.84
2019-03-21T04:24:29.988Z,9.72
2019-03-21T04:29:34.810Z,9.89
2019-03-21T04:34:39.570Z,9.84
2019-03-21T04:39:44.350Z,9.94
2019-03-21T04:44:49.125Z,10.09
2019-03-21T04:49:53.880Z,9.95
2019-03-21T04:54:58.764Z,9.87
2019-03-21T05:00:03.884Z,9.87
2019-03-21T05:05:10.244Z,9.86
2019-03-21T05:10:15.410Z,9.78
2019-03-21T05:15:23.420Z,9.89
2019-03-21T05:20:28.888Z,9.79
2019-03-21T05:25:33.682Z,9.80
2019-03-21T05:30:45.256Z,9.78
2019-03-21T05:35:50.055Z,9.72
2019-03-21T05:40:54.823Z,9.78
2019-03-21T05:45:59.627Z,9.80
2019-03-21T05:51:04.368Z,9.84
2019-03-21T05:56:09.517Z,9.83
2019-03-21T06:01:14.391Z,9.81
2019-03-21T06:06:23.409Z,9.92
2019-03-21T06:11:28.358Z,9.89
2019-03-21T06:16:37.530Z,10.01
2019-03-21T06:22:12.916Z,10.02
2019-03-21T06:27:28.391Z,10.12
2019-03-21T06:32:33.157Z,10.16
2019-03-21T06:37:37.940Z,10.17
2019-03-21T06:42:42.764Z,10.18
2019-03-21T06:47:47.525Z,10.19
2019-03-21T06:52:52.298Z,10.01
2019-03-21T06:57:57.075Z,10.01
2019-03-21T07:03:01.866Z,10.08
2019-03-21T07:08:06.741Z,10.22
2019-03-21T07:13:11.643Z,10.21
2019-03-21T07:18:16.420Z,10.16
2019-03-21T07:23:21.197Z,10.22
2019-03-21T07:28:26.157Z,10.26
2019-03-21T07:33:30.998Z,10.26
2019-03-21T07:38:35.883Z,10.33
2019-03-21T07:43:40.652Z,10.24
2019-03-21T07:48:45.587Z,10.47
2019-03-21T07:53:50.344Z,10.56
2019-03-21T07:58:57.683Z,10.43
2019-03-21T08:04:03.054Z,10.53
2019-03-21T08:09:08.801Z,10.45
2019-03-21T08:14:13.596Z,10.45
2019-03-21T08:19:18.406Z,10.45
2019-03-21T08:24:23.177Z,10.42
2019-03-21T08:29:28.054Z,10.55
2019-03-21T08:34:32.945Z,10.37
2019-03-21T08:39:37.722Z,10.34
2019-03-21T08:44:42.484Z,10.43
2019-03-21T08:49:47.277Z,10.53
2019-03-21T08:54:52.169Z,10.75
2019-03-21T08:59:56.941Z,10.68
2019-03-21T09:05:01.817Z,10.69
2019-03-21T09:10:08.105Z,10.78
2019-03-21T09:15:13.328Z,10.60
2019-03-21T09:20:19.027Z,10.80
2019-03-21T09:25:23.987Z,10.80
2019-03-21T09:30:28.761Z,10.97
2019-03-21T09:35:33.603Z,10.89
2019-03-21T09:40:38.318Z,11.02
2019-03-21T09:45:43.095Z,10.84
2019-03-21T09:50:47.888Z,11.17
2019-03-21T09:55:52.682Z,11.17
2019-03-21T10:00:57.573Z,11.23
2019-03-21T10:06:02.438Z,11.00
2019-03-21T10:11:07.224Z,11.22
2019-03-21T10:16:14.998Z,11.00
2019-03-21T10:21:19.801Z,10.97
2019-03-21T10:26:24.557Z,11.28
2019-03-21T10:31:29.429Z,11.34
2019-03-21T10:36:34.200Z,11.51
2019-03-21T10:41:38.964Z,11.43
2019-03-21T10:46:43.745Z,11.23
2019-03-21T10:51:55.045Z,11.53
2019-03-21T10:56:55.026Z,11.68
2019-03-21T11:02:07.176Z,11.78
2019-03-21T11:07:04.148Z,11.51
2019-03-21T11:12:08.949Z,11.48
2019-03-21T11:17:13.737Z,11.33
2019-03-21T11:22:18.616Z,11.19
2019-03-21T11:27:23.402Z,11.44
2019-03-21T11:32:28.279Z,11.44
2019-03-21T11:37:33.243Z,11.18
2019-03-21T11:42:39.470Z,11.59
2019-03-21T11:47:44.242Z,11.82
2019-03-21T11:52:49.009Z,11.56
2019-03-21T11:57:53.953Z,11.68
2019-03-21T12:02:58.705Z,11.49
2019-03-21T12:08:03.499Z,11.69
2019-03-21T12:13:08.284Z,11.53
2019-03-21T12:18:13.180Z,11.59
2019-03-21T12:23:17.950Z,11.49
2019-03-21T12:28:22.797Z,11.52
2019-03-21T12:33:27.567Z,11.70
2019-03-21T12:38:32.403Z,11.68
2019-03-21T12:43:37.169Z,12.00
2019-03-21T12:48:42.062Z,12.06
2019-03-21T12:53:46.838Z,12.22
2019-03-21T12:58:51.738Z,12.26
2019-03-21T13:03:56.519Z,11.99
2019-03-21T13:09:01.317Z,12.01
2019-03-21T13:14:06.153Z,12.08
2019-03-21T13:19:11.026Z,11.83
2019-03-21T13:24:19.234Z,11.84
2019-03-21T13:29:24.992Z,11.87
2019-03-21T13:34:28.791Z,12.03
2019-03-21T13:39:33.561Z,12.13
2019-03-21T13:44:38.474Z,12.03
2019-03-21T13:49:43.237Z,12.17
2019-03-21T13:54:48.025Z,11.93
2019-03-21T13:59:52.815Z,11.86
2019-03-21T14:04:57.593Z,11.98
2019-03-21T14:10:02.376Z,11.84
2019-03-21T14:15:07.521Z,11.72
2019-03-21T14:20:12.968Z,12.10
2019-03-21T14:25:17.839Z,12.19
2019-03-21T14:30:22.632Z,12.33
2019-03-21T14:35:28.372Z,12.31
2019-03-21T14:40:33.161Z,12.30
2019-03-21T14:45:37.962Z,12.36
2019-03-21T14:50:42.771Z,12.42
2019-03-21T14:55:47.919Z,12.26
2019-03-21T15:00:52.726Z,12.18
2019-03-21T15:05:57.519Z,12.50
2019-03-21T15:11:02.418Z,12.42
2019-03-21T15:16:07.314Z,12.44
2019-03-21T15:21:12.092Z,12.36
2019-03-21T15:26:16.867Z,12.44
2019-03-21T15:31:21.645Z,12.46
2019-03-21T15:36:26.453Z,12.25
2019-03-21T15:41:31.224Z,12.31
2019-03-21T15:46:36.011Z,12.17
2019-03-21T15:51:40.895Z,12.32
2019-03-21T15:56:45.669Z,12.64
2019-03-21T16:01:50.432Z,12.63
2019-03-21T16:06:55.210Z,12.48
2019-03-21T16:12:00.003Z,12.18
2019-03-21T16:17:04.809Z,12.29
2019-03-21T16:22:09.689Z,12.43
2019-03-21T16:27:14.484Z,12.12
2019-03-21T16:32:19.258Z,12.08
2019-03-21T16:37:24.125Z,12.15
2019-03-21T16:42:28.930Z,11.81
2019-03-21T16:47:33.693Z,11.80
2019-03-21T16:52:38.577Z,11.74
2019-03-21T16:57:43.476Z,11.61
2019-03-21T17:02:48.249Z,11.64
2019-03-21T17:07:53.111Z,11.62
2019-03-21T17:12:57.886Z,11.61
2019-03-21T17:18:02.704Z,11.57
2019-03-21T17:23:07.476Z,11.48
2019-03-21T17:28:12.245Z,11.43
2019-03-21T17:33:17.023Z,11.38
2019-03-21T17:38:21.911Z,11.38
2019-03-21T17:43:26.876Z,11.29
2019-03-21T17:48:31.754Z,11.27
2019-03-21T17:53:36.533Z,11.20
2019-03-21T17:58:41.366Z,11.20
2019-03-21T18:03:46.268Z,11.13
2019-03-21T18:08:51.070Z,11.11
2019-03-21T18:13:55.943Z,11.07
2019-03-21T18:19:00.723Z,11.07
2019-03-21T18:24:05.737Z,11.04
2019-03-21T18:29:10.509Z,11.03
2019-03-21T18:34:15.316Z,11.00
2019-03-21T18:39:20.108Z,10.98
2019-03-21T18:44:24.942Z,10.93
2019-03-21T18:49:29.721Z,10.88
2019-03-21T18:54:34.627Z,10.90
2019-03-21T18:59:39.511Z,10.85
2019-03-21T19:04:44.328Z,10.81
2019-03-21T19:09:49.366Z,10.76
2019-03-21T19:14:54.283Z,10.74
2019-03-21T19:19:59.333Z,10.67
2019-03-21T19:25:04.499Z,10.67
2019-03-21T19:30:10.237Z,10.68
2019-03-21T19:35:16.694Z,10.63
2019-03-21T19:40:22.163Z,10.60
2019-03-21T19:45:26.967Z,10.61
2019-03-21T19:50:31.780Z,10.54
2019-03-21T19:55:36.641Z,10.59
2019-03-21T20:00:41.473Z,10.55
2019-03-21T20:05:46.254Z,10.55
2019-03-21T20:10:51.313Z,10.52
2019-03-21T20:15:56.189Z,10.49
2019-03-21T20:21:01.043Z,10.45
2019-03-21T20:26:05.824Z,10.43
2019-03-21T20:31:10.632Z,10.47
2019-03-21T20:36:17.446Z,10.43
2019-03-21T20:41:22.245Z,10.35
2019-03-21T20:46:27.191Z,10.40
2019-03-21T20:51:32.030Z,10.34
2019-03-21T20:56:37.026Z,10.25
2019-03-21T21:01:41.794Z,10.19
2019-03-21T21:06:46.673Z,10.15
2019-03-21T21:11:51.475Z,10.13
2019-03-21T21:16:56.297Z,10.04
2019-03-21T21:22:01.066Z,10.02
2019-03-21T21:27:05.873Z,9.97
2019-03-21T21:32:10.796Z,9.95
2019-03-21T21:37:15.701Z,9.91
2019-03-21T21:42:20.584Z,9.84
2019-03-21T21:47:25.360Z,9.78
2019-03-21T21:52:41.383Z,9.77
2019-03-21T21:57:36.684Z,9.73
2019-03-21T22:02:41.455Z,9.71
2019-03-21T22:07:46.292Z,9.62
2019-03-21T22:12:51.066Z,9.58
2019-03-21T22:17:55.959Z,9.56
2019-03-21T22:23:00.742Z,9.47
2019-03-21T22:28:05.616Z,9.55
2019-03-21T22:33:10.406Z,9.39
2019-03-21T22:38:15.234Z,9.39
2019-03-21T22:43:19.941Z,9.31
2019-03-21T22:48:24.727Z,9.34
2019-03-21T22:53:30.296Z,9.29
2019-03-21T22:58:36.552Z,9.30
2019-03-21T23:03:41.504Z,9.26
2019-03-21T23:08:46.283Z,9.25
2019-03-21T23:13:51.047Z,9.16
2019-03-21T23:18:55.830Z,9.14
2019-03-21T23:24:00.585Z,9.14
2019-03-21T23:29:05.392Z,9.11
2019-03-21T23:34:10.159Z,9.06
2019-03-21T23:39:14.943Z,9.08
2019-03-21T23:44:19.714Z,9.03
2019-03-21T23:49:24.489Z,8.99
2019-03-21T23:54:29.257Z,9.02
2019-03-21T23:59:34.020Z,9.00
